Time;durP1;ratioP1;P1;durP2;ratioP2;P2;SDS_P1;SDS_P2;PMS_P1;PMS_P2;Temp;Humidity;BMP_temperature;BMP_pressure;BME280_temperature;BME280_humidity;BME280_pressure;Samples;Min_cycle;Max_cycle;Signal;HPM_P1;HPM_P2
2023/08/11 00:02:22;;;;;;;21.33;19.48;;;;;;;17.29;56.07;100718.00;4970035;28;96760;-80
2023/08/11 00:04:49;;;;;;;20.80;19.30;;;;;;;17.20;56.11;100702.59;4985808;28;96901;-78
2023/08/11 00:07:15;;;;;;;20.33;18.50;;;;;;;17.26;56.33;100710.22;4976260;28;98690;-79
2023/08/11 00:09:41;;;;;;;19.20;17.90;;;;;;;17.23;56.09;100709.53;4984461;28;98466;-78
2023/08/11 00:12:06;;;;;;;21.13;19.08;;;;;;;17.25;56.18;100719.13;4969562;28;96772;-80
2023/08/11 00:14:32;;;;;;;20.35;18.83;;;;;;;17.22;56.30;100711.34;4989599;28;96834;-78
2023/08/11 00:16:58;;;;;;;21.20;19.30;;;;;;;17.19;56.31;100708.81;4981455;28;99136;-79
2023/08/11 00:19:24;;;;;;;21.13;19.33;;;;;;;17.20;56.08;100706.09;4981610;28;98329;-78
2023/08/11 00:21:49;;;;;;;22.55;20.63;;;;;;;17.23;56.34;100712.19;4994847;28;97102;-77
2023/08/11 00:24:16;;;;;;;20.67;19.10;;;;;;;17.19;56.39;100717.66;4975797;28;97044;-79
2023/08/11 00:26:41;;;;;;;20.60;18.77;;;;;;;17.16;56.42;100709.88;4987655;28;98988;-78
2023/08/11 00:29:06;;;;;;;20.50;18.65;;;;;;;17.14;56.81;100716.22;4994680;28;98710;-81
2023/08/11 00:31:32;;;;;;;21.02;19.48;;;;;;;17.11;56.72;100721.69;4989568;28;96760;-80
2023/08/11 00:33:58;;;;;;;21.90;19.63;;;;;;;17.09;56.94;100724.41;4988179;28;97258;-80
2023/08/11 00:36:24;;;;;;;20.73;19.02;;;;;;;17.03;56.81;100723.88;4993046;28;98677;-77
2023/08/11 00:38:49;;;;;;;21.83;19.63;;;;;;;17.00;56.93;100735.53;4964100;28;100559;-79
2023/08/11 00:41:16;;;;;;;24.65;19.85;;;;;;;16.92;57.40;100720.00;4994389;28;96639;-80
2023/08/11 00:43:42;;;;;;;21.52;19.63;;;;;;;16.85;57.52;100721.28;4994021;28;97002;-80
2023/08/11 00:46:12;;;;;;;20.45;18.95;;;;;;;16.84;57.83;100721.38;4973896;28;101431;-80
2023/08/11 00:48:38;;;;;;;21.33;19.35;;;;;;;16.87;58.08;100729.16;5000489;28;98499;-80
2023/08/11 00:51:05;;;;;;;21.45;19.55;;;;;;;16.84;58.12;100726.66;4992162;28;97300;-80
2023/08/11 00:53:33;;;;;;;20.98;19.23;;;;;;;16.79;58.18;100726.09;4998851;28;96964;-78
2023/08/11 00:56:00;;;;;;;20.65;18.85;;;;;;;16.74;58.60;100723.63;4988389;28;98457;-80
2023/08/11 00:58:28;;;;;;;20.42;18.65;;;;;;;16.68;58.57;100714.22;4975472;28;100386;-80
2023/08/11 01:00:53;;;;;;;21.60;19.88;;;;;;;16.73;58.73;100724.56;4959202;28;97057;-80
2023/08/11 01:03:19;;;;;;;21.85;19.70;;;;;;;16.71;58.57;100724.66;4991829;28;97209;-80
2023/08/11 01:05:48;;;;;;;20.15;18.75;;;;;;;16.73;58.52;100730.72;4964881;28;97950;-80
2023/08/11 01:08:56;;;;;;;19.85;18.33;;;;;;;16.73;58.47;100733.38;4972246;28;98340;-80
2023/08/11 01:11:31;;;;;;;21.08;19.38;;;;;;;16.71;58.52;100726.44;4936126;28;96931;-79
2023/08/11 01:14:06;;;;;;;21.73;19.70;;;;;;;16.67;58.56;100730.22;4963181;28;97720;-80
2023/08/11 01:16:32;;;;;;;20.52;18.85;;;;;;;16.60;58.69;100723.50;4952477;28;100947;-79
2023/08/11 01:18:58;;;;;;;20.50;19.00;;;;;;;16.55;58.63;100723.75;4962701;28;99163;-79
2023/08/11 01:21:25;;;;;;;20.92;19.25;;;;;;;16.56;58.93;100714.84;4969423;28;97404;-80
2023/08/11 01:23:50;;;;;;;21.40;19.67;;;;;;;16.54;59.20;100711.44;4969555;28;96853;-77
2023/08/11 01:26:16;;;;;;;21.02;19.40;;;;;;;16.56;58.98;100716.66;4967243;28;98652;-77
2023/08/11 01:28:42;;;;;;;20.48;18.98;;;;;;;16.55;59.17;100715.81;4970924;28;98672;-78
2023/08/11 01:31:08;;;;;;;20.60;19.10;;;;;;;16.49;59.14;100710.81;4971309;28;96710;-77
2023/08/11 01:33:34;;;;;;;21.17;19.48;;;;;;;16.47;59.47;100704.75;4972478;28;97212;-80
2023/08/11 01:36:00;;;;;;;21.73;19.85;;;;;;;16.51;59.21;100715.09;4970524;28;100319;-80
2023/08/11 01:38:25;;;;;;;20.50;18.95;;;;;;;16.56;59.42;100720.16;4962531;28;98446;-77
2023/08/11 01:40:51;;;;;;;21.17;19.05;;;;;;;16.52;59.69;100713.28;4958190;28;96805;-77
2023/08/11 01:43:19;;;;;;;21.20;19.67;;;;;;;16.53;59.84;100712.38;4955604;28;97304;-77
2023/08/11 01:45:48;;;;;;;21.92;20.05;;;;;;;16.41;59.62;100707.72;4970980;28;97934;-77
2023/08/11 01:48:14;;;;;;;20.48;18.98;;;;;;;16.39;59.92;100715.75;4969706;28;98068;-77
2023/08/11 01:50:41;;;;;;;20.45;18.95;;;;;;;16.40;60.29;100719.25;4965773;28;96934;-76
2023/08/11 01:53:07;;;;;;;20.83;19.13;;;;;;;16.37;60.04;100719.41;4972296;28;96873;-79
2023/08/11 01:55:33;;;;;;;20.70;19.05;;;;;;;16.35;60.16;100716.84;4968199;28;99070;-79
2023/08/11 01:57:58;;;;;;;20.65;18.73;;;;;;;16.31;60.26;100709.97;4948066;28;100461;-79
2023/08/11 02:00:25;;;;;;;21.15;19.30;;;;;;;16.38;60.37;100726.44;4963205;28;96683;-81
2023/08/11 02:02:52;;;;;;;21.08;19.58;;;;;;;16.30;60.66;100721.50;4968689;28;97306;-80
2023/08/11 02:05:17;;;;;;;21.50;19.85;;;;;;;16.34;60.43;100719.56;4961336;28;100180;-79
2023/08/11 02:07:44;;;;;;;20.83;19.33;;;;;;;16.32;60.55;100724.94;4977972;28;98627;-80
2023/08/11 02:10:11;;;;;;;21.80;20.00;;;;;;;16.32;60.81;100724.06;4964596;28;96912;-78
2023/08/11 02:12:38;;;;;;;20.02;18.63;;;;;;;16.32;60.86;100722.31;4981168;28;97246;-80
2023/08/11 02:15:07;;;;;;;20.80;19.27;;;;;;;16.31;60.53;100723.22;4972586;28;100435;-80
2023/08/11 02:17:33;;;;;;;21.45;19.60;;;;;;;16.26;60.76;100725.25;4973565;28;100222;-80
2023/08/11 02:20:00;;;;;;;21.63;19.92;;;;;;;16.20;61.05;100729.09;4978095;28;97114;-80
2023/08/11 02:22:26;;;;;;;20.85;19.20;;;;;;;16.18;61.07;100720.34;4991568;28;96829;-80
2023/08/11 02:24:52;;;;;;;20.92;19.42;;;;;;;16.14;61.11;100718.78;4975386;28;98791;-80
2023/08/11 02:27:17;;;;;;;20.40;18.90;;;;;;;16.10;61.41;100722.53;4988295;28;98672;-80
2023/08/11 02:29:44;;;;;;;20.95;19.38;;;;;;;16.12;61.44;100730.41;4988284;28;96708;-79
2023/08/11 02:32:11;;;;;;;20.38;18.88;;;;;;;16.11;61.19;100723.38;4973829;28;96889;-80
2023/08/11 02:34:37;;;;;;;21.35;19.55;;;;;;;16.07;61.36;100731.47;4986124;28;98933;-80
2023/08/11 02:37:03;;;;;;;20.73;18.25;;;;;;;16.03;61.42;100721.13;4988382;28;98406;-80
2023/08/11 02:39:28;;;;;;;20.73;19.13;;;;;;;15.97;61.90;100722.31;4955643;28;97134;-80
2023/08/11 02:41:55;;;;;;;20.48;19.00;;;;;;;15.96;61.46;100731.16;4981432;28;96897;-80
2023/08/11 02:44:22;;;;;;;21.00;19.17;;;;;;;15.91;61.68;100719.09;4990797;28;97932;-81
2023/08/11 02:46:47;;;;;;;21.15;19.45;;;;;;;15.96;61.83;100728.50;4989777;28;98749;-80
2023/08/11 02:49:14;;;;;;;21.42;19.50;;;;;;;15.84;61.82;100711.44;4977694;28;96854;-80
2023/08/11 02:51:39;;;;;;;21.05;19.45;;;;;;;15.86;61.86;100723.78;4976632;28;96794;-80
2023/08/11 02:54:05;;;;;;;21.95;19.95;;;;;;;15.81;62.16;100729.28;4975254;28;99017;-79
2023/08/11 02:56:31;;;;;;;21.02;19.42;;;;;;;15.81;62.22;100729.28;4967434;28;100475;-80
2023/08/11 02:58:57;;;;;;;21.00;19.33;;;;;;;15.48;62.59;100719.38;4973323;28;96809;-80
2023/08/11 03:01:24;;;;;;;21.20;19.52;;;;;;;15.62;62.68;100731.94;4982967;28;96963;-80
2023/08/11 03:03:50;;;;;;;22.13;20.25;;;;;;;15.65;62.59;100731.81;4989417;28;98816;-80
2023/08/11 03:06:16;;;;;;;21.75;19.73;;;;;;;15.68;62.55;100734.31;4988202;28;98585;-80
2023/08/11 03:08:42;;;;;;;21.58;19.88;;;;;;;15.65;62.54;100731.81;4966526;28;96840;-80
2023/08/11 03:11:08;;;;;;;21.55;19.80;;;;;;;15.59;62.74;100727.66;4969338;28;96891;-80
2023/08/11 03:13:35;;;;;;;23.02;20.88;;;;;;;15.49;62.64;100722.88;4967822;28;100863;-80
2023/08/11 03:16:01;;;;;;;21.15;19.65;;;;;;;15.51;62.65;100736.91;4984163;28;97496;-81
2023/08/11 03:18:27;;;;;;;21.88;20.25;;;;;;;15.47;62.53;100722.09;4967189;28;97217;-79
2023/08/11 03:20:54;;;;;;;21.67;19.80;;;;;;;15.50;62.57;100724.59;4973794;28;96904;-80
2023/08/11 03:23:20;;;;;;;21.20;19.50;;;;;;;15.56;62.61;100738.41;4982929;28;99171;-80
2023/08/11 03:25:46;;;;;;;25.95;20.05;;;;;;;15.56;62.63;100735.75;4988107;28;98740;-80
2023/08/11 03:28:12;;;;;;;22.63;20.38;;;;;;;15.50;62.51;100721.94;4972354;28;97029;-80
2023/08/11 03:30:40;;;;;;;22.20;20.20;;;;;;;15.54;62.53;100739.41;4989637;28;96869;-80
2023/08/11 03:33:06;;;;;;;22.02;20.02;;;;;;;15.44;62.53;100723.09;4972241;28;100927;-80
2023/08/11 03:35:40;;;;;;;22.60;20.33;;;;;;;15.46;62.60;100730.97;4972467;28;100340;-80
2023/08/11 03:38:06;;;;;;;21.38;19.75;;;;;;;15.43;62.26;100731.13;4990596;28;96884;-80
2023/08/11 03:40:33;;;;;;;22.30;20.42;;;;;;;15.48;62.32;100735.25;4973037;28;97327;-80
2023/08/11 03:42:58;;;;;;;23.17;20.77;;;;;;;15.35;62.32;100715.59;4968522;28;100576;-79
2023/08/11 03:45:24;;;;;;;20.58;18.73;;;;;;;15.38;62.53;100721.59;4968360;28;99952;-80
2023/08/11 03:47:50;;;;;;;21.02;19.42;;;;;;;15.45;62.46;100740.69;4967060;28;97319;-80
2023/08/11 03:50:20;;;;;;;20.65;18.90;;;;;;;15.37;62.53;100722.53;4968921;28;96971;-80
2023/08/11 03:52:47;;;;;;;21.45;19.42;;;;;;;15.45;62.35;100726.63;4993370;28;99092;-80
2023/08/11 03:55:13;;;;;;;21.90;19.67;;;;;;;15.44;62.53;100722.22;4957624;28;100245;-80
2023/08/11 03:57:38;;;;;;;22.10;20.00;;;;;;;15.45;62.38;100730.13;4967343;28;97064;-80
2023/08/11 04:00:14;;;;;;;21.23;19.42;;;;;;;15.45;62.55;100731.91;4963299;28;96946;-80
2023/08/11 04:02:39;;;;;;;22.35;20.10;;;;;;;15.50;62.26;100737.81;4976340;28;97836;-80
2023/08/11 04:05:10;;;;;;;22.95;20.90;;;;;;;15.52;62.33;100734.16;4971619;28;100115;-80
2023/08/11 04:07:38;;;;;;;21.17;19.27;;;;;;;15.54;62.01;100742.88;4993242;28;97956;-80
2023/08/11 04:10:05;;;;;;;21.92;20.05;;;;;;;15.56;61.93;100746.34;4991371;28;97164;-80
2023/08/11 04:12:33;;;;;;;25.15;20.38;;;;;;;15.60;61.76;100742.59;4990995;28;98849;-79
2023/08/11 04:14:59;;;;;;;23.08;20.90;;;;;;;15.74;61.60;100743.75;4989879;28;98428;-80
2023/08/11 04:17:26;;;;;;;22.60;20.70;;;;;;;15.66;61.28;100746.72;4971089;28;97365;-80
2023/08/11 04:19:53;;;;;;;22.55;20.55;;;;;;;15.74;60.56;100734.03;4968171;28;96877;-80
2023/08/11 04:22:20;;;;;;;23.08;20.90;;;;;;;15.86;60.27;100753.75;4973542;28;99579;-81
2023/08/11 04:24:45;;;;;;;26.60;20.90;;;;;;;16.00;60.36;100745.97;4986337;28;98365;-80
2023/08/11 04:27:11;;;;;;;22.55;20.05;;;;;;;16.10;60.59;100746.38;4967345;28;96865;-80
2023/08/11 04:29:37;;;;;;;23.52;20.70;;;;;;;16.27;60.17;100742.88;4981140;28;96989;-80
2023/08/11 04:32:04;;;;;;;20.25;3.38;;;;;;;16.61;59.46;100752.59;4969500;28;100281;-80
2023/08/11 04:34:32;;;;;;;8.32;3.20;;;;;;;16.92;57.77;100761.59;4975590;28;99897;-80
2023/08/11 04:36:59;;;;;;;7.13;2.90;;;;;;;17.23;57.16;100758.13;4964392;28;97061;-78
2023/08/11 04:39:25;;;;;;;7.50;3.10;;;;;;;17.40;56.60;100757.22;4957726;28;96894;-78
2023/08/11 04:41:51;;;;;;;7.18;2.80;;;;;;;17.46;55.32;100762.19;4945965;28;100526;-79
2023/08/11 04:44:16;;;;;;;14.45;3.58;;;;;;;17.66;54.96;100763.72;4970828;28;100460;-77
2023/08/11 04:46:42;;;;;;;11.18;2.92;;;;;;;17.64;54.84;100762.94;4974961;28;96960;-77
2023/08/11 04:49:08;;;;;;;11.80;2.97;;;;;;;17.57;55.01;100764.22;4983020;28;96812;-77
2023/08/11 04:51:33;;;;;;;7.75;2.90;;;;;;;17.84;54.64;100765.34;4981499;28;99280;-77
2023/08/11 04:54:03;;;;;;;10.57;3.78;;;;;;;18.05;54.03;100760.59;4962432;28;100306;-77
2023/08/11 04:56:29;;;;;;;11.48;2.78;;;;;;;18.31;53.49;100759.06;4961121;28;96685;-77
2023/08/11 04:58:55;;;;;;;6.40;2.95;;;;;;;18.94;51.83;100768.59;4960140;28;97031;-78
2023/08/11 05:01:23;;;;;;;15.13;3.03;;;;;;;19.23;51.28;100758.78;4975201;28;98964;-79
2023/08/11 05:03:50;;;;;;;8.75;3.05;;;;;;;19.16;51.23;100757.44;4961729;28;100543;-77
2023/08/11 05:06:18;;;;;;;8.95;2.80;;;;;;;18.89;51.28;100770.66;4992490;28;96860;-77
2023/08/11 05:08:45;;;;;;;4.72;2.55;;;;;;;18.65;51.56;100772.16;4991957;28;97258;-78
2023/08/11 05:11:11;;;;;;;7.18;2.85;;;;;;;18.43;51.51;100770.75;4991245;28;99168;-77
2023/08/11 05:13:36;;;;;;;5.10;2.20;;;;;;;18.49;51.37;100774.84;4968486;28;98801;-77
2023/08/11 05:16:02;;;;;;;6.53;2.83;;;;;;;18.45;51.14;100770.69;4989611;28;96832;-77
2023/08/11 05:18:27;;;;;;;7.47;2.38;;;;;;;18.14;51.87;100768.97;4988386;28;96825;-77
2023/08/11 05:20:53;;;;;;;7.13;2.08;;;;;;;18.09;51.68;100785.16;4987115;28;98721;-77
2023/08/11 05:23:18;;;;;;;7.22;2.17;;;;;;;18.04;51.72;100776.63;4992230;28;99252;-77
2023/08/11 05:25:44;;;;;;;5.03;2.33;;;;;;;18.83;50.49;100772.84;4984745;28;97288;-77
2023/08/11 05:28:10;;;;;;;10.00;2.67;;;;;;;19.53;49.45;100759.59;4979590;28;98013;-77
2023/08/11 05:30:37;;;;;;;8.88;2.20;;;;;;;20.17;47.79;100771.34;4988065;28;97642;-77
2023/08/11 05:33:03;;;;;;;11.32;2.42;;;;;;;21.24;46.04;100774.63;4986709;28;98468;-79
2023/08/11 05:35:29;;;;;;;4.57;2.45;;;;;;;22.51;43.83;100768.88;4975559;28;97193;-79
2023/08/11 05:37:55;;;;;;;4.35;2.17;;;;;;;24.65;39.99;100766.66;4974896;28;96884;-80
2023/08/11 05:40:20;;;;;;;8.70;2.60;;;;;;;27.10;35.49;100768.50;4986932;28;98646;-80
2023/08/11 05:42:46;;;;;;;9.60;3.22;;;;;;;29.23;31.69;100756.06;4979002;28;98276;-80
2023/08/11 05:45:12;;;;;;;4.30;2.58;;;;;;;31.04;29.69;100757.88;4990605;28;97167;-80
2023/08/11 05:47:37;;;;;;;9.48;8.57;;;;;;;31.94;27.70;100757.44;4985644;28;96905;-80
2023/08/11 05:50:03;;;;;;;12.32;11.15;;;;;;;33.51;26.41;100753.81;4990740;28;99174;-80
2023/08/11 05:52:28;;;;;;;8.15;6.55;;;;;;;34.20;24.85;100746.97;4978801;28;98698;-80
2023/08/11 05:54:54;;;;;;;4.32;2.67;;;;;;;35.09;24.05;100751.81;4988098;28;97188;-81
2023/08/11 05:57:20;;;;;;;8.18;3.67;;;;;;;36.19;23.45;100750.66;4976810;28;96880;-80
2023/08/11 05:59:45;;;;;;;7.82;2.67;;;;;;;36.93;22.40;100745.94;4975917;28;99338;-81
2023/08/11 06:02:11;;;;;;;7.05;2.63;;;;;;;37.46;21.36;100747.63;4978745;28;99050;-80
2023/08/11 06:04:36;;;;;;;7.78;7.00;;;;;;;38.14;20.61;100747.84;4980398;28;96663;-80
2023/08/11 06:07:02;;;;;;;5.18;2.70;;;;;;;38.22;20.45;100738.50;4975891;28;97219;-81
2023/08/11 06:09:28;;;;;;;6.65;2.72;;;;;;;38.15;21.08;100740.47;4990925;28;98973;-81
2023/08/11 06:11:53;;;;;;;6.50;2.85;;;;;;;39.12;20.04;100743.50;4986573;28;98756;-80
2023/08/11 06:14:19;;;;;;;5.93;2.40;;;;;;;39.78;19.07;100750.03;4988668;28;96959;-80
2023/08/11 06:16:44;;;;;;;15.85;14.30;;;;;;;40.40;18.51;100745.00;4987582;28;97255;-81
2023/08/11 06:19:10;;;;;;;6.78;4.47;;;;;;;41.15;18.26;100740.63;4986075;28;98832;-81
2023/08/11 06:21:36;;;;;;;5.75;3.90;;;;;;;41.79;17.94;100748.75;4984764;28;98785;-81
2023/08/11 06:24:02;;;;;;;4.70;3.13;;;;;;;42.34;17.35;100741.69;4966852;28;97212;-81
2023/08/11 06:26:28;;;;;;;5.75;2.70;;;;;;;42.91;17.27;100753.28;4962224;28;96819;-81
2023/08/11 06:28:54;;;;;;;7.00;4.68;;;;;;;43.40;16.54;100753.34;4979075;28;99091;-81
2023/08/11 06:31:19;;;;;;;7.43;3.17;;;;;;;44.17;16.60;100751.31;4977852;28;98866;-81
2023/08/11 06:33:46;;;;;;;12.52;6.30;;;;;;;44.66;16.10;100751.09;4974807;28;97089;-81
2023/08/11 06:36:11;;;;;;;16.20;14.85;;;;;;;44.90;15.40;100742.38;4987850;28;96849;-81
2023/08/11 06:38:37;;;;;;;8.27;3.03;;;;;;;45.50;15.52;100746.47;4972847;28;99315;-81
2023/08/11 06:41:03;;;;;;;13.18;11.88;;;;;;;45.69;15.26;100754.28;4972598;28;99006;-81
2023/08/11 06:43:29;;;;;;;13.00;12.00;;;;;;;45.87;14.74;100753.72;4981018;28;97171;-81
2023/08/11 06:45:55;;;;;;;8.63;3.58;;;;;;;46.04;14.54;100751.53;4988375;28;97189;-81
2023/08/11 06:48:21;;;;;;;21.25;19.48;;;;;;;46.76;14.26;100756.16;4984517;28;98863;-81
2023/08/11 06:50:46;;;;;;;20.08;18.70;;;;;;;47.46;13.60;100753.34;4980177;28;98234;-81
2023/08/11 06:53:12;;;;;;;20.60;19.17;;;;;;;47.61;13.79;100756.81;4961889;28;96989;-82
2023/08/11 06:55:37;;;;;;;20.85;19.17;;;;;;;48.12;13.51;100765.88;4960865;28;96922;-81
2023/08/11 06:58:03;;;;;;;19.65;18.45;;;;;;;48.85;13.13;100760.13;4957645;28;99544;-82
2023/08/11 07:00:28;;;;;;;21.05;19.65;;;;;;;50.02;12.47;100754.81;4980644;28;98787;-82
2023/08/11 07:02:54;;;;;;;22.73;20.70;;;;;;;50.56;11.99;100746.00;4990877;28;97270;-82
2023/08/11 07:05:20;;;;;;;21.73;19.90;;;;;;;51.69;11.27;100749.97;4973506;28;96835;-82
2023/08/11 07:07:45;;;;;;;21.30;19.80;;;;;;;48.53;12.37;100751.59;4981001;28;98652;-82
2023/08/11 07:10:11;;;;;;;20.85;19.33;;;;;;;46.90;13.36;100746.94;4987747;28;98488;-82
2023/08/11 07:12:37;;;;;;;20.67;19.38;;;;;;;41.88;16.87;100749.16;4987972;28;96873;-81
2023/08/11 07:15:03;;;;;;;20.05;18.75;;;;;;;41.22;17.27;100755.06;4983253;28;97377;-81
2023/08/11 07:17:28;;;;;;;20.30;18.90;;;;;;;46.73;13.81;100757.56;4975737;28;99365;-82
2023/08/11 07:19:54;;;;;;;22.08;20.48;;;;;;;45.58;13.88;100745.09;4977329;28;98440;-82
2023/08/11 07:22:19;;;;;;;20.48;18.85;;;;;;;40.58;17.50;100757.81;4984307;28;97118;-81
2023/08/11 07:24:45;;;;;;;20.73;19.33;;;;;;;48.00;13.56;100760.72;4978225;28;96963;-81
2023/08/11 07:27:10;;;;;;;20.60;19.15;;;;;;;49.98;12.37;100758.53;4984824;28;99041;-81
2023/08/11 07:29:36;;;;;;;20.08;18.77;;;;;;;46.00;14.09;100753.19;4993515;28;98528;-82
2023/08/11 07:32:04;;;;;;;19.90;18.40;;;;;;;46.41;14.20;100761.50;4991707;28;97313;-81
2023/08/11 07:34:29;;;;;;;18.77;17.67;;;;;;;46.29;13.93;100759.03;4994296;28;97366;-81
2023/08/11 07:36:55;;;;;;;21.27;19.88;;;;;;;44.46;15.43;100760.13;4971674;28;99433;-81
2023/08/11 07:39:20;;;;;;;21.08;19.10;;;;;;;47.16;14.21;100767.09;4989478;28;99215;-81
2023/08/11 07:41:46;;;;;;;19.17;17.75;;;;;;;46.86;13.56;100768.03;4987705;28;96816;-81
2023/08/11 07:44:11;;;;;;;19.80;18.52;;;;;;;48.53;12.44;100771.09;4988006;28;97730;-81
2023/08/11 07:46:37;;;;;;;20.02;18.73;;;;;;;48.17;12.72;100769.47;4986977;28;98253;-81
2023/08/11 07:49:02;;;;;;;20.17;18.67;;;;;;;48.14;12.83;100775.63;4983145;28;98417;-81
2023/08/11 07:51:28;;;;;;;20.77;19.38;;;;;;;53.46;10.43;100773.25;4981670;28;96985;-81
2023/08/11 07:53:54;;;;;;;21.25;19.67;;;;;;;55.31;9.21;100779.56;4981349;28;96960;-82
2023/08/11 07:56:19;;;;;;;21.38;19.67;;;;;;;56.62;9.12;100775.38;4987513;28;98535;-82
2023/08/11 07:58:46;;;;;;;22.33;20.40;;;;;;;57.02;8.50;100768.97;4978683;28;98922;-82
2023/08/11 08:01:11;;;;;;;21.10;19.50;;;;;;;57.77;8.82;100768.38;4958148;28;96851;-82
2023/08/11 08:03:37;;;;;;;22.42;20.40;;;;;;;58.28;8.56;100757.25;4990580;28;97490;-82
2023/08/11 08:06:05;;;;;;;20.88;19.48;;;;;;;59.02;8.10;100757.41;4993166;28;98963;-82
2023/08/11 08:08:33;;;;;;;20.73;19.42;;;;;;;59.45;7.07;100752.66;4989995;28;98501;-82
2023/08/11 08:10:59;;;;;;;22.20;20.58;;;;;;;59.91;7.37;100747.09;4973692;28;97047;-82
2023/08/11 08:13:25;;;;;;;21.40;19.73;;;;;;;60.00;7.57;100749.66;4985945;28;96860;-82
2023/08/11 08:15:50;;;;;;;23.45;21.75;;;;;;;60.52;7.29;100748.13;4989006;28;98978;-82
2023/08/11 08:18:16;;;;;;;23.08;21.38;;;;;;;60.55;6.79;100752.19;4983217;28;99028;-82
2023/08/11 08:20:41;;;;;;;21.40;20.00;;;;;;;60.61;6.54;100748.66;4985637;28;96698;-81
2023/08/11 08:23:07;;;;;;;23.35;21.65;;;;;;;61.03;7.22;100746.81;4992415;28;96917;-82
2023/08/11 08:25:33;;;;;;;23.52;22.00;;;;;;;61.22;7.43;100734.50;4993034;28;98979;-82
2023/08/11 08:27:58;;;;;;;22.63;21.23;;;;;;;59.78;8.03;100737.91;4979224;28;98614;-81
2023/08/11 08:30:24;;;;;;;24.52;22.67;;;;;;;61.26;7.34;100743.84;4978946;28;97399;-82
2023/08/11 08:32:49;;;;;;;22.75;21.25;;;;;;;60.85;7.52;100738.88;4982804;28;96832;-82
2023/08/11 08:35:15;;;;;;;24.60;22.90;;;;;;;61.50;7.40;100736.84;4983108;28;98905;-80
2023/08/11 08:37:41;;;;;;;23.85;22.25;;;;;;;61.97;6.79;100738.97;4980032;28;98722;-79
2023/08/11 08:40:08;;;;;;;25.80;24.17;;;;;;;62.16;6.72;100734.25;4984041;28;96766;-80
2023/08/11 08:42:34;;;;;;;26.08;24.38;;;;;;;60.36;6.75;100738.94;4976625;28;96760;-80
2023/08/11 08:45:00;;;;;;;26.27;24.07;;;;;;;61.54;7.17;100738.50;4991475;28;98772;-82
2023/08/11 08:47:26;;;;;;;25.80;24.05;;;;;;;61.91;6.41;100736.88;4991156;28;98436;-82
2023/08/11 08:49:52;;;;;;;25.50;23.90;;;;;;;61.23;6.96;100736.94;4992527;28;96881;-81
2023/08/11 08:52:18;;;;;;;25.37;23.37;;;;;;;61.11;7.00;100731.53;4971866;28;96795;-79
2023/08/11 08:54:45;;;;;;;26.85;25.05;;;;;;;60.93;7.10;100738.97;4979226;28;99067;-80
2023/08/11 08:57:10;;;;;;;24.13;22.55;;;;;;;60.49;7.04;100739.53;4980542;28;98528;-82
2023/08/11 08:59:36;;;;;;;24.57;22.77;;;;;;;60.12;7.32;100735.28;4959390;28;96766;-79
2023/08/11 09:02:02;;;;;;;26.80;24.95;;;;;;;59.30;7.56;100725.28;4981030;28;97161;-82
2023/08/11 09:04:28;;;;;;;24.13;22.50;;;;;;;58.29;8.04;100722.16;4982358;28;99143;-82
2023/08/11 09:06:53;;;;;;;24.00;22.40;;;;;;;57.82;8.53;100731.44;4957753;28;98670;-81
2023/08/11 09:09:19;;;;;;;24.00;22.13;;;;;;;57.17;8.31;100733.59;4992330;28;96819;-81
2023/08/11 09:11:45;;;;;;;24.25;22.65;;;;;;;55.30;9.20;100735.69;4990698;28;97117;-79
2023/08/11 09:14:10;;;;;;;22.75;21.25;;;;;;;52.14;10.54;100739.59;4990008;28;98933;-79
2023/08/11 09:16:37;;;;;;;23.75;21.73;;;;;;;50.43;11.67;100739.28;4986519;28;98451;-80
2023/08/11 09:19:03;;;;;;;;;;;;;;;48.13;13.08;100745.31;4988349;28;96911;-82
2023/08/11 09:21:29;;;;;;;21.80;19.90;;;;;;;46.49;13.30;100738.72;4988041;28;96837;-81
2023/08/11 09:23:56;;;;;;;21.77;19.92;;;;;;;44.77;14.70;100751.19;4967227;28;98805;-81
2023/08/11 09:26:22;;;;;;;20.45;18.95;;;;;;;43.58;16.09;100746.66;4981984;28;98694;-81
2023/08/11 09:28:49;;;;;;;21.45;19.75;;;;;;;42.52;17.22;100749.69;4979674;28;96644;-81
2023/08/11 09:31:15;;;;;;;20.45;18.85;;;;;;;41.34;17.98;100744.03;4980413;28;96853;-81
2023/08/11 09:33:40;;;;;;;20.73;19.15;;;;;;;40.22;18.51;100743.19;4974672;28;98678;-80
2023/08/11 09:36:06;;;;;;;22.60;20.73;;;;;;;38.96;18.37;100749.63;4977052;28;98985;-80
2023/08/11 09:38:32;;;;;;;22.25;20.60;;;;;;;38.04;20.17;100747.50;4974088;28;96781;-80
2023/08/11 09:41:03;;;;;;;21.40;19.67;;;;;;;37.62;20.75;100758.09;4977077;28;96847;-80
2023/08/11 09:43:30;;;;;;;4.25;2.08;;;;;;;37.10;20.59;100769.03;4973795;28;99292;-80
2023/08/11 09:45:56;;;;;;;7.30;2.97;;;;;;;36.81;22.06;100761.31;4988724;28;98791;-80
2023/08/11 09:48:22;;;;;;;25.65;23.75;;;;;;;36.38;21.34;100757.16;4985401;28;96865;-80
2023/08/11 09:50:49;;;;;;;20.27;18.67;;;;;;;35.85;22.02;100772.66;4968094;28;96906;-80
2023/08/11 09:53:15;;;;;;;21.55;19.83;;;;;;;35.28;22.48;100780.19;4965425;28;99257;-80
2023/08/11 09:55:41;;;;;;;21.23;19.60;;;;;;;35.35;22.36;100776.47;4979230;28;98660;-80
2023/08/11 09:58:09;;;;;;;20.88;19.38;;;;;;;35.26;23.24;100774.97;4958948;28;96738;-80
2023/08/11 10:00:34;;;;;;;23.02;20.77;;;;;;;35.08;22.85;100767.34;4974554;28;97112;-79
2023/08/11 10:03:33;;;;;;;21.48;20.08;;;;;;;34.80;24.70;100772.81;4992163;28;98649;-80
2023/08/11 10:06:01;;;;;;;22.30;20.47;;;;;;;34.52;24.37;100771.94;4919194;28;98440;-80
2023/08/11 10:08:29;;;;;;;22.23;20.63;;;;;;;34.52;23.44;100763.75;4952513;28;96826;-80
2023/08/11 10:10:54;;;;;;;20.58;19.13;;;;;;;34.36;24.31;100767.63;4951937;28;97542;-80
2023/08/11 10:13:26;;;;;;;20.65;19.23;;;;;;;34.40;24.21;100775.19;4946892;28;97753;-80
2023/08/11 10:15:55;;;;;;;20.50;18.98;;;;;;;34.46;23.87;100771.69;4951521;28;98354;-79
2023/08/11 10:18:21;;;;;;;21.25;19.52;;;;;;;34.42;23.82;100778.59;4948581;28;97194;-79
2023/08/11 10:20:49;;;;;;;20.80;19.50;;;;;;;34.11;21.73;100765.31;4946787;28;97334;-79
2023/08/11 10:23:16;;;;;;;21.48;19.88;;;;;;;33.35;22.92;100763.00;4946844;28;99065;-79
2023/08/11 10:25:42;;;;;;;20.33;19.05;;;;;;;33.06;23.48;100774.75;4941634;28;98854;-79
2023/08/11 10:28:11;;;;;;;22.45;21.05;;;;;;;32.80;24.33;100763.47;4959407;28;96722;-79
2023/08/11 10:30:36;;;;;;;21.58;19.98;;;;;;;32.50;25.01;100765.34;4943458;28;96955;-80
2023/08/11 10:33:03;;;;;;;21.05;19.65;;;;;;;32.58;26.62;100757.06;4951884;28;98657;-79
2023/08/11 10:35:47;;;;;;;22.13;20.50;;;;;;;32.61;25.72;100770.28;4941186;28;98740;-79
2023/08/11 10:38:12;;;;;;;21.77;20.23;;;;;;;32.64;25.85;100764.50;4934591;28;96691;-80
2023/08/11 10:40:39;;;;;;;21.27;19.80;;;;;;;32.64;26.30;100767.22;4934620;28;96875;-79
2023/08/11 10:43:05;;;;;;;21.40;19.85;;;;;;;32.83;26.25;100763.94;4939122;28;98967;-79
2023/08/11 10:45:36;;;;;;;20.92;19.52;;;;;;;32.34;24.02;100761.69;4951554;28;98323;-79
2023/08/11 10:48:10;;;;;;;;;;;;;;;32.28;24.90;100756.16;4946340;28;96970;-79
2023/08/11 10:50:38;;;;;;;20.75;19.35;;;;;;;32.29;25.56;100768.69;4942984;28;96880;-79
2023/08/11 10:53:20;;;;;;;21.80;20.25;;;;;;;32.24;25.96;100764.66;4939869;28;99205;-79
2023/08/11 10:56:00;;;;;;;20.83;19.30;;;;;;;32.12;25.87;100768.84;4939954;28;98867;-80
2023/08/11 10:58:25;;;;;;;20.73;19.40;;;;;;;32.06;26.12;100766.88;4942763;28;96922;-80
2023/08/11 11:00:52;;;;;;;22.30;20.27;;;;;;;31.88;27.36;100763.56;4939633;28;96841;-80
2023/08/11 11:03:18;;;;;;;22.38;20.35;;;;;;;31.63;27.34;100760.19;4939304;28;98711;-80
2023/08/11 11:05:44;;;;;;;20.85;19.48;;;;;;;31.65;27.29;100767.13;4949553;28;98584;-80
2023/08/11 11:08:10;;;;;;;20.23;18.92;;;;;;;31.32;26.29;100766.41;4988873;28;96691;-79
2023/08/11 11:10:35;;;;;;;21.35;19.95;;;;;;;31.07;25.62;100754.84;4995039;28;96952;-80